McDowell, Kentucky
Current Conditions -  °F | °C
As of 4:55 AM on Monday 22 Dec 2014 (Local Time) from KPBX Reporting Station
Overcast Overcast  
Wind Chill: 35°   Ceiling: 4300
Heat Index: 39°   Visibility: 10mi
Dew Point: 32°   Wind: 6mph
Humidity: 76%   Direction: 150°SSE
Pressure: 30.03"   Gusts: NA
Location:  37.46°N, 82.74°W
Report Text: KPBX 220955Z AUTO 15005KT 10SM BKN043 OVC065 04/00 A3003 RMK AO2 T00400002
Loading
Personal Weather Stations






























Interactive Weather Map New forecast layout! Learn more

10-Day Weather Forecast

Advertisements
Track Severe Weather on mobile